Time;durP1;ratioP1;P1;durP2;ratioP2;P2;SDS_P1;SDS_P2;PMS_P1;PMS_P2;Temp;Humidity;BMP_temperature;BMP_pressure;BME280_temperature;BME280_humidity;BME280_pressure;Samples;Min_cycle;Max_cycle;Signal;HPM_P1;HPM_P2
2022/10/18 00:00:59;;;;;;;33.83;18.65;;;14.20;99.90;;;;;;5086192;28;20040;-78
2022/10/18 00:03:25;;;;;;;36.78;19.30;;;14.80;99.90;;;;;;5071227;28;20469;-78
2022/10/18 00:05:50;;;;;;;39.40;22.08;;;13.80;99.90;;;;;;5076728;28;20048;-78
2022/10/18 00:08:17;;;;;;;45.22;21.25;;;13.80;99.90;;;;;;5087173;28;20398;-78
2022/10/18 00:10:44;;;;;;;39.15;21.35;;;14.60;99.90;;;;;;5082084;28;20036;-78
2022/10/18 00:13:09;;;;;;;46.55;21.67;;;13.80;99.90;;;;;;5074841;28;20048;-78
2022/10/18 00:15:35;;;;;;;50.10;22.10;;;14.40;99.90;;;;;;5071720;28;20028;-78
2022/10/18 00:18:01;;;;;;;67.30;23.50;;;13.80;99.90;;;;;;5055782;28;20124;-78
2022/10/18 00:20:27;;;;;;;66.57;22.27;;;14.30;99.90;;;;;;5071914;28;20041;-78
2022/10/18 00:22:52;;;;;;;72.68;24.60;;;13.70;99.90;;;;;;5070519;28;20041;-78
2022/10/18 00:25:18;;;;;;;67.15;23.08;;;13.70;99.90;;;;;;5082355;28;20366;-78
2022/10/18 00:27:43;;;;;;;113.75;24.17;;;13.70;99.90;;;;;;5070909;28;20041;-78
2022/10/18 00:30:10;;;;;;;140.23;23.20;;;13.70;99.90;;;;;;5073828;28;20041;-78
2022/10/18 00:32:39;;;;;;;144.45;24.10;;;13.70;99.90;;;;;;5075462;28;20048;-78
2022/10/18 00:35:06;;;;;;;198.68;25.48;;;13.80;99.90;;;;;;5076562;28;20040;-78
2022/10/18 00:37:33;;;;;;;91.60;22.63;;;13.80;99.90;;;;;;5097603;28;20062;-78
2022/10/18 00:39:59;;;;;;;130.15;24.45;;;13.80;99.90;;;;;;5093165;28;20039;-78
2022/10/18 00:42:29;;;;;;;84.30;25.00;;;13.70;99.90;;;;;;5076104;28;20122;-77
2022/10/18 00:45:19;;;;;;;124.30;23.05;;;14.20;99.90;;;;;;5061153;28;20036;-78
2022/10/18 00:47:49;;;;;;;108.18;25.48;;;13.70;99.90;;;;;;5095342;28;20083;-77
2022/10/18 00:50:15;;;;;;;111.38;23.60;;;13.70;99.90;;;;;;5060856;28;20048;-78
2022/10/18 00:52:49;;;;;;;87.40;22.73;;;13.70;99.90;;;;;;5094922;28;20568;-78
2022/10/18 00:55:15;;;;;;;65.97;22.77;;;14.60;99.90;;;;;;5088556;28;20048;-78
2022/10/18 00:57:42;;;;;;;100.18;24.13;;;13.60;99.90;;;;;;5077562;28;20453;-78
2022/10/18 01:00:12;;;;;;;78.68;24.90;;;13.60;99.90;;;;;;5096233;28;20084;-77
2022/10/18 01:02:41;;;;;;;107.10;24.95;;;13.60;99.90;;;;;;5095582;28;20062;-78
2022/10/18 01:05:07;;;;;;;122.25;26.38;;;13.50;99.90;;;;;;5095918;28;20075;-78
2022/10/18 01:07:44;;;;;;;97.45;23.17;;;13.50;99.90;;;;;;5078035;28;20036;-78
2022/10/18 01:10:39;;;;;;;113.53;25.40;;;13.50;99.90;;;;;;5095744;28;20044;-78
2022/10/18 01:13:35;;;;;;;114.25;26.52;;;13.60;99.90;;;;;;5073935;28;20470;-77
2022/10/18 01:16:27;;;;;;;61.63;24.38;;;13.50;99.90;;;;;;5083346;28;20054;-78
2022/10/18 01:19:05;;;;;;;66.65;24.15;;;13.50;99.90;;;;;;5095418;28;20177;-78
2022/10/18 01:21:35;;;;;;;85.95;22.92;;;13.50;99.90;;;;;;5093007;28;20489;-78
2022/10/18 01:24:22;;;;;;;59.03;23.85;;;13.50;99.90;;;;;;5076582;28;20517;-78
2022/10/18 01:27:32;;;;;;;51.17;23.55;;;13.50;99.90;;;;;;5077281;28;20091;-78
2022/10/18 01:30:01;;;;;;;76.05;24.20;;;13.50;99.90;;;;;;4993016;28;20278;-77
2022/10/18 01:32:51;;;;;;;114.07;23.63;;;13.50;99.90;;;;;;5060187;28;20051;-77
2022/10/18 01:35:21;;;;;;;105.43;23.05;;;14.20;99.90;;;;;;5055732;28;20441;-78
2022/10/18 01:37:49;;;;;;;147.55;26.10;;;13.50;99.90;;;;;;5076826;28;20093;-78
2022/10/18 01:40:18;;;;;;;160.55;26.60;;;14.50;99.90;;;;;;5096322;28;20036;-78
2022/10/18 01:42:46;;;;;;;219.88;27.63;;;13.50;99.90;;;;;;5076637;28;20063;-77
2022/10/18 01:45:15;;;;;;;202.68;26.33;;;14.30;99.90;;;;;;5091903;28;20055;-77
2022/10/18 01:47:44;;;;;;;185.68;26.10;;;13.50;99.90;;;;;;5077268;28;20047;-78
2022/10/18 01:50:10;;;;;;;153.40;25.75;;;13.40;99.90;;;;;;5059606;28;20036;-77
2022/10/18 01:52:50;;;;;;;227.73;24.75;;;13.50;99.90;;;;;;5083124;28;20040;-78
2022/10/18 01:55:17;;;;;;;226.00;25.45;;;13.50;99.90;;;;;;5078071;28;20036;-78
2022/10/18 01:58:17;;;;;;;361.98;27.55;;;13.70;99.90;;;;;;5095607;28;20137;-78
2022/10/18 02:00:43;;;;;;;258.17;24.40;;;13.50;99.90;;;;;;5060554;28;20132;-78
2022/10/18 02:03:22;;;;;;;273.42;28.48;;;14.10;99.90;;;;;;5079789;28;20051;-78
2022/10/18 02:05:52;;;;;;;320.58;25.50;;;13.40;99.90;;;;;;5087747;28;20048;-77
2022/10/18 02:08:56;;;;;;;207.98;23.85;;;13.40;99.90;;;;;;5092593;28;20123;-78
2022/10/18 02:11:22;;;;;;;239.40;24.10;;;13.40;99.90;;;;;;5095096;28;20036;-78
2022/10/18 02:13:56;;;;;;;367.30;29.60;;;13.40;99.90;;;;;;5094256;28;20131;-78
2022/10/18 02:16:27;;;;;;;388.85;30.70;;;13.30;99.90;;;;;;5087003;28;20453;-78
2022/10/18 02:19:22;;;;;;;253.40;27.30;;;13.90;99.90;;;;;;5092831;28;20040;-78
2022/10/18 02:21:50;;;;;;;226.90;23.70;;;13.30;99.90;;;;;;5076823;28;20040;-77
2022/10/18 02:24:18;;;;;;;213.48;23.00;;;13.30;99.90;;;;;;5059880;28;20050;-77
2022/10/18 02:26:43;;;;;;;260.83;22.65;;;13.30;99.90;;;;;;5075502;28;20044;-78
2022/10/18 02:29:10;;;;;;;284.75;25.40;;;13.80;99.90;;;;;;5075936;28;20089;-78
2022/10/18 02:31:47;;;;;;;283.90;27.15;;;14.20;99.90;;;;;;5092755;28;20044;-77
2022/10/18 02:34:18;;;;;;;252.45;26.40;;;13.20;99.90;;;;;;5081602;28;20032;-77
2022/10/18 02:36:53;;;;;;;200.13;25.05;;;13.10;99.90;;;;;;5078386;28;20059;-77
2022/10/18 02:39:28;;;;;;;235.50;27.55;;;13.70;99.90;;;;;;5113666;28;20046;-77
2022/10/18 02:41:54;;;;;;;259.42;28.38;;;13.10;99.90;;;;;;5095386;28;20043;-77
2022/10/18 02:44:19;;;;;;;290.52;30.10;;;13.10;99.90;;;;;;5096276;28;20436;-77
2022/10/18 02:46:46;;;;;;;294.58;30.48;;;13.40;99.90;;;;;;5114293;28;20099;-77
2022/10/18 02:49:12;;;;;;;260.42;30.25;;;13.10;99.90;;;;;;5095332;28;20094;-77
2022/10/18 02:51:37;;;;;;;271.30;30.88;;;13.00;99.90;;;;;;5094583;28;20075;-78
2022/10/18 02:54:03;;;;;;;303.13;36.00;;;13.00;99.90;;;;;;5095667;28;20036;-77
2022/10/18 02:56:29;;;;;;;231.07;30.42;;;13.00;99.90;;;;;;5094092;28;20063;-77
2022/10/18 02:58:55;;;;;;;390.70;37.70;;;14.20;99.90;;;;;;5075253;28;20531;-78
2022/10/18 03:01:20;;;;;;;279.33;32.17;;;13.00;99.90;;;;;;5075139;28;20036;-77
2022/10/18 03:03:46;;;;;;;174.52;28.67;;;13.00;99.90;;;;;;5075059;28;20127;-77
2022/10/18 03:06:12;;;;;;;202.48;27.83;;;14.20;99.90;;;;;;5091773;28;20050;-77
2022/10/18 03:08:38;;;;;;;251.60;30.63;;;13.10;99.90;;;;;;5083219;28;20508;-78
2022/10/18 03:11:04;;;;;;;375.77;36.38;;;13.10;99.90;;;;;;5079381;28;20044;-78
2022/10/18 03:13:29;;;;;;;183.50;30.80;;;13.00;99.90;;;;;;5094228;28;20044;-78
2022/10/18 03:15:55;;;;;;;181.23;29.73;;;13.40;99.90;;;;;;5090641;28;20397;-78
2022/10/18 03:18:21;;;;;;;227.50;33.13;;;14.10;99.90;;;;;;5093584;28;20036;-78
2022/10/18 03:20:46;;;;;;;229.07;31.42;;;13.00;99.90;;;;;;5075193;28;20105;-78
2022/10/18 03:23:12;;;;;;;207.60;29.00;;;13.80;99.90;;;;;;5075074;28;20496;-78
2022/10/18 03:25:37;;;;;;;220.80;29.95;;;13.20;99.90;;;;;;5093267;28;20069;-78
2022/10/18 03:28:03;;;;;;;197.20;28.10;;;13.40;99.90;;;;;;5092884;28;20040;-78
2022/10/18 03:30:29;;;;;;;191.80;29.73;;;13.00;99.90;;;;;;5106485;28;20515;-78
2022/10/18 03:32:55;;;;;;;206.23;27.58;;;13.00;99.90;;;;;;5089151;28;20040;-75
2022/10/18 03:35:21;;;;;;;219.23;31.17;;;13.30;99.90;;;;;;5056262;28;20044;-76
2022/10/18 03:37:48;;;;;;;249.00;30.55;;;12.90;99.90;;;;;;5054615;28;20052;-75
2022/10/18 03:40:13;;;;;;;157.98;28.58;;;12.90;99.90;;;;;;5074530;28;20036;-76
2022/10/18 03:42:39;;;;;;;243.80;31.95;;;13.90;99.90;;;;;;5082140;28;20415;-75
2022/10/18 03:45:05;;;;;;;194.15;29.73;;;12.90;99.90;;;;;;5093397;28;20084;-76
2022/10/18 03:47:31;;;;;;;230.18;32.60;;;12.80;99.90;;;;;;5057865;28;20052;-76
2022/10/18 03:49:57;;;;;;;264.25;30.13;;;13.00;99.90;;;;;;5075037;28;20432;-76
2022/10/18 03:52:22;;;;;;;223.35;27.05;;;13.50;99.90;;;;;;5074361;28;20611;-76
2022/10/18 03:54:48;;;;;;;232.30;28.88;;;13.00;99.90;;;;;;5092638;28;20052;-76
2022/10/18 03:57:13;;;;;;;207.45;29.83;;;12.90;99.90;;;;;;5066618;28;20038;-76
2022/10/18 03:59:39;;;;;;;244.48;29.02;;;12.80;99.90;;;;;;5094825;28;20050;-76
2022/10/18 04:02:05;;;;;;;182.13;29.27;;;13.10;99.90;;;;;;5114225;28;20098;-76
2022/10/18 04:04:30;;;;;;;207.60;29.38;;;12.80;99.90;;;;;;5117716;28;20437;-76
2022/10/18 04:06:56;;;;;;;211.27;32.30;;;12.80;99.90;;;;;;5081409;28;20062;-76
2022/10/18 04:09:21;;;;;;;177.20;27.27;;;12.70;99.90;;;;;;5095722;28;20079;-76
2022/10/18 04:11:50;;;;;;;110.63;24.65;;;12.80;99.90;;;;;;5077678;28;20044;-76
2022/10/18 04:14:16;;;;;;;102.93;25.63;;;12.70;99.90;;;;;;5061349;28;20473;-76
2022/10/18 04:16:42;;;;;;;159.63;26.83;;;12.70;99.90;;;;;;5096583;28;20071;-76
2022/10/18 04:19:08;;;;;;;165.65;27.70;;;12.80;99.90;;;;;;5094897;28;20430;-76
2022/10/18 04:21:33;;;;;;;170.02;26.50;;;13.40;99.90;;;;;;5096042;28;20078;-76
2022/10/18 04:23:59;;;;;;;174.52;27.08;;;12.70;99.90;;;;;;5096175;28;20059;-76
2022/10/18 04:26:24;;;;;;;99.32;25.88;;;14.00;99.90;;;;;;5077701;28;20071;-76
2022/10/18 04:28:50;;;;;;;208.20;28.48;;;12.70;99.90;;;;;;5095725;28;20476;-76
2022/10/18 04:31:16;;;;;;;188.25;28.95;;;13.10;99.90;;;;;;5061125;28;20429;-76
2022/10/18 04:33:41;;;;;;;224.23;30.35;;;12.70;99.90;;;;;;5078078;28;20528;-76
2022/10/18 04:36:07;;;;;;;110.05;25.08;;;13.80;99.90;;;;;;5077997;28;20098;-77
2022/10/18 04:38:33;;;;;;;228.43;31.13;;;13.20;99.90;;;;;;5077995;28;20044;-77
2022/10/18 04:40:58;;;;;;;121.72;26.88;;;12.70;99.90;;;;;;5112379;28;20411;-76
2022/10/18 04:43:24;;;;;;;117.20;26.00;;;13.40;99.90;;;;;;5115920;28;20052;-77
2022/10/18 04:45:50;;;;;;;197.73;29.00;;;12.70;99.90;;;;;;5064294;28;20127;-77
2022/10/18 04:48:17;;;;;;;133.05;28.08;;;13.70;99.90;;;;;;5097965;28;20052;-77
2022/10/18 04:50:43;;;;;;;112.65;25.30;;;12.80;99.90;;;;;;5097773;28;20042;-76
2022/10/18 04:53:08;;;;;;;187.07;28.48;;;12.60;99.90;;;;;;5090060;28;20134;-77
2022/10/18 04:55:34;;;;;;;114.80;23.60;;;12.60;99.90;;;;;;5095425;28;20095;-77
2022/10/18 04:58:00;;;;;;;180.77;27.08;;;12.70;99.90;;;;;;5095537;28;20077;-76
2022/10/18 05:00:25;;;;;;;99.50;24.77;;;13.10;99.90;;;;;;5095695;28;20055;-77
2022/10/18 05:02:57;;;;;;;132.43;23.00;;;13.30;99.90;;;;;;5077289;28;20054;-76
2022/10/18 05:05:23;;;;;;;108.82;22.38;;;12.20;99.90;;;;;;5095688;28;20382;-76
2022/10/18 05:07:48;;;;;;;230.48;26.13;;;12.50;99.90;;;;;;5094207;28;20058;-77
2022/10/18 05:10:14;;;;;;;132.95;22.38;;;12.70;99.90;;;;;;5059037;28;20032;-77
2022/10/18 05:12:40;;;;;;;124.68;24.20;;;12.50;99.90;;;;;;5094870;28;20472;-77
2022/10/18 05:15:06;;;;;;;142.93;21.83;;;12.80;99.90;;;;;;5076741;28;20154;-77
2022/10/18 05:17:31;;;;;;;127.40;19.98;;;12.40;99.90;;;;;;5060042;28;20055;-77
2022/10/18 05:19:57;;;;;;;145.18;20.70;;;12.40;99.90;;;;;;5077043;28;20031;-77
2022/10/18 05:22:22;;;;;;;135.35;21.95;;;12.60;99.90;;;;;;5072533;28;20046;-76
2022/10/18 05:24:48;;;;;;;209.02;22.90;;;12.40;99.90;;;;;;5097112;28;20071;-77
2022/10/18 05:27:14;;;;;;;130.98;21.42;;;12.30;99.90;;;;;;5114924;28;20135;-77
2022/10/18 05:29:39;;;;;;;77.80;20.85;;;12.20;99.90;;;;;;5090358;28;20055;-77
2022/10/18 05:32:05;;;;;;;116.05;18.65;;;12.50;99.90;;;;;;5076332;28;20054;-77
2022/10/18 05:34:31;;;;;;;129.18;21.48;;;12.90;99.90;;;;;;5094276;28;20115;-77
2022/10/18 05:36:57;;;;;;;96.63;18.23;;;12.20;99.90;;;;;;5076415;28;20101;-76
2022/10/18 05:39:22;;;;;;;173.15;21.45;;;12.80;99.90;;;;;;5076958;28;20377;-76
2022/10/18 05:41:48;;;;;;;167.45;20.27;;;12.20;99.90;;;;;;5094387;28;20055;-77
2022/10/18 05:44:14;;;;;;;156.85;20.48;;;12.20;99.90;;;;;;5076446;28;20130;-76
2022/10/18 05:46:40;;;;;;;92.95;19.13;;;13.50;99.90;;;;;;5094386;28;20039;-76
2022/10/18 05:49:05;;;;;;;124.35;18.92;;;12.10;99.90;;;;;;5082359;28;20509;-77
2022/10/18 05:51:31;;;;;;;127.78;19.73;;;13.00;99.90;;;;;;5074420;28;20048;-76
2022/10/18 05:53:57;;;;;;;116.53;19.92;;;12.00;99.90;;;;;;5075801;28;20099;-77
2022/10/18 05:56:23;;;;;;;128.10;19.08;;;12.00;99.90;;;;;;5075983;28;20051;-76
2022/10/18 05:58:50;;;;;;;105.25;16.40;;;12.00;99.90;;;;;;5075414;28;20039;-76
2022/10/18 06:01:16;;;;;;;97.35;16.77;;;12.00;99.90;;;;;;5081030;28;20051;-77
2022/10/18 06:03:41;;;;;;;91.05;17.23;;;12.00;99.90;;;;;;5059101;28;20040;-77
2022/10/18 06:06:10;;;;;;;77.00;16.10;;;12.80;99.90;;;;;;5075799;28;20054;-77
2022/10/18 06:08:37;;;;;;;75.32;16.80;;;12.00;99.90;;;;;;5059738;28;20093;-77
2022/10/18 06:11:14;;;;;;;55.30;16.05;;;11.80;99.90;;;;;;5094851;28;20032;-77
2022/10/18 06:13:45;;;;;;;52.13;16.05;;;11.70;99.90;;;;;;5076669;28;20048;-78
2022/10/18 06:16:11;;;;;;;144.40;21.05;;;12.20;99.90;;;;;;5093931;28;20146;-78
2022/10/18 06:18:37;;;;;;;58.10;17.13;;;12.60;99.90;;;;;;5077050;28;20044;-78
2022/10/18 06:21:03;;;;;;;50.85;16.90;;;11.70;99.90;;;;;;5092201;28;20063;-78
2022/10/18 06:23:29;;;;;;;45.20;15.70;;;11.70;99.90;;;;;;5073351;28;20044;-78
2022/10/18 06:26:06;;;;;;;65.10;16.30;;;13.00;99.90;;;;;;5074440;28;20378;-78
2022/10/18 06:28:33;;;;;;;41.20;16.10;;;11.70;99.90;;;;;;5058840;28;20044;-78
2022/10/18 06:30:59;;;;;;;55.67;15.10;;;11.90;99.90;;;;;;5075677;28;20131;-78
2022/10/18 06:33:25;;;;;;;63.95;14.77;;;11.60;99.90;;;;;;5093183;28;20131;-78
2022/10/18 06:36:05;;;;;;;30.10;13.23;;;12.70;99.90;;;;;;5058559;28;20123;-77
2022/10/18 06:38:32;;;;;;;40.45;15.00;;;12.30;99.90;;;;;;5082472;28;20051;-78
2022/10/18 06:40:58;;;;;;;38.50;13.80;;;11.50;99.90;;;;;;5095883;28;20365;-78
2022/10/18 06:43:24;;;;;;;50.67;14.18;;;11.50;99.90;;;;;;5093975;28;20048;-78
2022/10/18 06:45:50;;;;;;;34.60;14.40;;;11.40;99.90;;;;;;5114038;28;20052;-77
2022/10/18 06:48:17;;;;;;;36.53;14.10;;;11.40;99.90;;;;;;5095492;28;20077;-77
2022/10/18 06:50:50;;;;;;;72.03;15.90;;;12.40;99.90;;;;;;5082335;28;20050;-77
2022/10/18 06:53:16;;;;;;;39.88;14.23;;;11.80;99.90;;;;;;5095442;28;20044;-78
2022/10/18 06:55:41;;;;;;;69.95;14.32;;;11.40;99.90;;;;;;5095025;28;20055;-77
2022/10/18 06:58:07;;;;;;;61.60;13.60;;;12.70;99.90;;;;;;5095071;28;20039;-77
2022/10/18 07:00:32;;;;;;;42.08;12.68;;;11.50;99.90;;;;;;5095507;28;20032;-77
2022/10/18 07:02:58;;;;;;;56.83;13.27;;;11.50;99.90;;;;;;5094862;28;20035;-77
2022/10/18 07:05:24;;;;;;;67.53;13.77;;;11.50;99.90;;;;;;5083742;28;20123;-77
2022/10/18 07:07:50;;;;;;;53.45;12.63;;;11.50;99.90;;;;;;5058430;28;20422;-76
2022/10/18 07:10:15;;;;;;;46.33;12.70;;;11.60;99.90;;;;;;5113783;28;20126;-77
2022/10/18 07:12:41;;;;;;;35.40;11.00;;;11.60;99.90;;;;;;5113621;28;20031;-77
2022/10/18 07:15:07;;;;;;;28.60;10.88;;;12.50;99.90;;;;;;5095203;28;20084;-77
2022/10/18 07:17:33;;;;;;;35.15;10.93;;;11.70;99.90;;;;;;5112891;28;20071;-79
2022/10/18 07:19:59;;;;;;;28.20;10.32;;;11.70;99.90;;;;;;5113466;28;20051;-77
2022/10/18 07:22:25;;;;;;;31.63;9.93;;;11.70;99.90;;;;;;5109068;28;20061;-77
2022/10/18 07:24:51;;;;;;;32.13;9.80;;;12.40;99.90;;;;;;5074164;28;20047;-77
2022/10/18 07:27:16;;;;;;;25.35;10.07;;;11.70;99.90;;;;;;5074001;28;20043;-77
2022/10/18 07:29:42;;;;;;;20.67;9.48;;;11.80;99.90;;;;;;5099215;28;20027;-77
2022/10/18 07:32:08;;;;;;;24.98;9.15;;;11.90;99.90;;;;;;5076002;28;20108;-77
2022/10/18 07:34:33;;;;;;;24.80;9.68;;;12.70;99.90;;;;;;5101780;28;20105;-77
2022/10/18 07:37:01;;;;;;;14.52;8.23;;;12.20;99.90;;;;;;5075481;28;20048;-81
2022/10/18 07:39:26;;;;;;;17.25;9.00;;;12.90;99.90;;;;;;5075910;28;20036;-81
2022/10/18 07:41:53;;;;;;;11.27;7.57;;;13.20;99.90;;;;;;5110592;28;20100;-83
2022/10/18 07:44:19;;;;;;;6.63;5.57;;;14.00;99.90;;;;;;5086831;28;20358;-78
2022/10/18 07:46:44;;;;;;;7.60;5.47;;;15.30;99.90;;;;;;5091676;28;20044;-80
2022/10/18 07:49:10;;;;;;;10.05;5.30;;;;;;;;;;5104855;28;20046;-79
2022/10/18 07:51:36;;;;;;;5.82;4.68;;;;;;;;;;5093325;28;20114;-79
2022/10/18 07:54:03;;;;;;;9.82;4.30;;;;;;;;;;5108991;28;20047;-79
2022/10/18 07:56:29;;;;;;;6.10;4.10;;;;;;;;;;5074149;28;20048;-79
2022/10/18 07:58:55;;;;;;;7.85;4.30;;;;;;;;;;5092701;28;20425;-79
2022/10/18 08:01:22;;;;;;;7.22;4.38;;;;;;;;;;5092779;28;20044;-80
2022/10/18 08:03:49;;;;;;;10.10;4.18;;;;;;;;;;5093418;28;20489;-80
2022/10/18 08:06:17;;;;;;;7.15;4.25;;;;;;;;;;5074624;28;20397;-79
2022/10/18 08:08:43;;;;;;;7.00;4.60;;;;;;;;;;5074246;28;20488;-80
2022/10/18 08:11:14;;;;;;;6.75;4.28;;;;;;;;;;5073889;28;20040;-79
2022/10/18 08:13:41;;;;;;;8.25;4.22;;;;;;;;;;5074292;28;20131;-80
2022/10/18 08:16:08;;;;;;;8.48;4.75;;;;;;;;;;5092272;28;20135;-80
2022/10/18 08:18:35;;;;;;;8.30;4.10;;;;;;;;;;5077921;28;20044;-80
2022/10/18 08:21:01;;;;;;;9.40;4.30;;;;;;;;;;5094892;28;20356;-80
2022/10/18 08:23:27;;;;;;;7.43;4.00;;;;;;;;;;5078305;28;20511;-81
2022/10/18 08:25:53;;;;;;;11.02;4.70;;;;;;;;;;5077920;28;20043;-81
2022/10/18 08:28:19;;;;;;;9.63;4.30;;;;;;;;;;5112744;28;20047;-81
2022/10/18 08:30:45;;;;;;;9.40;4.10;;;;;;;;;;5077545;28;20043;-81
2022/10/18 08:33:11;;;;;;;10.38;4.65;;;;;;;;;;5077022;28;20088;-81
2022/10/18 08:35:38;;;;;;;7.75;4.43;;;;;;;;;;5093771;28;20061;-80
2022/10/18 08:38:04;;;;;;;9.15;4.20;;;;;;;;;;5094216;28;20054;-81
2022/10/18 08:40:32;;;;;;;11.23;4.32;;;;;;;;;;5077735;28;20050;-81
2022/10/18 08:43:05;;;;;;;6.55;3.35;;;;;;;;;;5094760;28;20047;-81
2022/10/18 08:45:34;;;;;;;8.98;3.45;;;;;;;;;;5093292;28;20051;-81
2022/10/18 08:48:00;;;;;;;11.02;3.40;;;;;;;;;;5094999;28;20126;-81
2022/10/18 08:50:28;;;;;;;9.98;3.58;;;;;;;;;;5097836;28;20096;-81
2022/10/18 08:52:54;;;;;;;12.13;3.30;;;;;;;;;;5115851;28;20055;-81
2022/10/18 08:55:39;;;;;;;11.05;3.25;;;;;;;;;;5105491;28;20075;-81
2022/10/18 08:58:20;;;;;;;9.65;3.08;;;;;;;;;;5078497;28;20048;-81
2022/10/18 09:00:58;;;;;;;8.50;3.30;;;;;;;;;;5095448;28;20126;-81
2022/10/18 09:03:27;;;;;;;11.18;3.75;;;;;;;;;;5076050;28;20048;-80
2022/10/18 09:05:55;;;;;;;9.77;3.08;;;;;;;;;;5078423;28;20040;-81
2022/10/18 09:08:39;;;;;;;11.75;3.83;;;;;;;;;;5097687;28;20043;-80
2022/10/18 09:11:08;;;;;;;11.38;3.90;;;;;;;;;;5061978;28;20510;-81
2022/10/18 09:13:34;;;;;;;11.77;3.60;;;;;;;;;;5095324;28;20533;-81
2022/10/18 09:16:27;;;;;;;13.23;3.25;;;;;;;;;;5077608;28;20144;-81
2022/10/18 09:19:16;;;;;;;13.73;3.70;;;;;;;;;;5057649;28;20052;-81
2022/10/18 09:21:52;;;;;;;12.93;2.97;;;;;;;;;;5092103;28;20079;-81
2022/10/18 09:24:21;;;;;;;18.10;3.35;;;;;;;;;;5060004;28;20127;-81
2022/10/18 09:26:49;;;;;;;10.02;2.53;;;;;;;;;;5076304;28;20040;-81
2022/10/18 09:29:27;;;;;;;9.68;2.53;;;;;;;;;;5079826;28;20058;-81
2022/10/18 09:32:03;;;;;;;13.88;3.10;;;;;;;;;;5115247;28;20074;-81
2022/10/18 09:34:42;;;;;;;12.80;2.80;;;;;;;;;;5080043;28;20075;-81
2022/10/18 09:37:16;;;;;;;9.85;2.70;;;;;;;;;;5079820;28;20062;-80
2022/10/18 09:39:42;;;;;;;11.88;2.60;;;;;;;;;;5097060;28;20051;-81
2022/10/18 09:42:18;;;;;;;10.13;2.85;;;;;;;;;;5079743;28;20322;-81
2022/10/18 09:44:48;;;;;;;8.50;2.28;;;;;;;;;;5068711;28;20048;-81
2022/10/18 09:47:17;;;;;;;10.98;2.60;;;;;;;;;;5059182;28;20047;-81
2022/10/18 09:49:46;;;;;;;12.80;2.67;;;;;;;;;;5076348;28;20040;-81
2022/10/18 09:52:20;;;;;;;11.30;2.83;;;;;;;;;;5094061;28;20043;-81
2022/10/18 09:54:49;;;;;;;7.90;2.40;;;;;;;;;;5076148;28;20094;-81
2022/10/18 09:57:31;;;;;;;16.02;3.35;;;;;;;;;;5059591;28;20051;-80
2022/10/18 09:59:58;;;;;;;9.50;2.72;;;;;;;;;;5059370;28;20401;-80
2022/10/18 10:02:24;;;;;;;12.30;2.60;;;;;;;;;;5059922;28;20036;-80
2022/10/18 10:04:50;;;;;;;10.15;2.80;;;;;;;;;;5095248;28;20051;-80
2022/10/18 10:07:18;;;;;;;13.85;2.97;;;;;;;;;;5059125;28;20083;-80
2022/10/18 10:09:46;;;;;;;11.57;2.97;;;;;;;;;;5094150;28;20040;-80
2022/10/18 10:12:32;;;;;;;12.35;2.95;;;;;;;;;;5075324;28;20089;-80
2022/10/18 10:15:07;;;;;;;14.60;3.17;;;;;;;;;;5074912;28;20120;-82
2022/10/18 10:17:33;;;;;;;;;;;;;;;;;;5059012;28;20132;-82
2022/10/18 10:20:18;;;;;;;10.68;2.63;;;;;;;;;;5058581;28;19919;-81
2022/10/18 10:22:46;;;;;;;11.68;2.42;;;;;;;;;;5092332;28;20083;-81
2022/10/18 10:25:32;;;;;;;12.82;2.45;;;;;;;;;;5076323;28;20048;-81
2022/10/18 10:28:11;;;;;;;9.57;2.13;;;;;;;;;;5075469;28;20044;-81
2022/10/18 10:30:37;;;;;;;11.55;2.47;;;;;;;;;;5075389;28;20186;-80
2022/10/18 10:33:04;;;;;;;13.23;2.42;;;;;;;;;;5075238;28;20051;-81
2022/10/18 10:35:34;;;;;;;9.45;2.10;;;;;;;;;;5093218;28;20143;-81
2022/10/18 10:38:00;;;;;;;13.05;2.60;;;;;;;;;;5075164;28;20060;-81
2022/10/18 10:40:41;;;;;;;12.63;2.40;;;;;;;;;;5075377;28;20595;-82
2022/10/18 10:43:16;;;;;;;12.35;2.35;;;;;;;;;;5093581;28;20115;-80
2022/10/18 10:46:01;;;;;;;9.00;2.47;;;;;;;;;;5093480;28;20036;-80
2022/10/18 10:48:28;;;;;;;10.18;2.38;;;;;;;;;;5093867;28;20044;-80
2022/10/18 10:51:05;;;;;;;11.20;2.70;;;;;;;;;;5058293;28;20074;-80
2022/10/18 10:53:56;;;;;;;8.95;2.33;;;16.50;99.90;;;;;;5075262;28;20053;-80
2022/10/18 10:56:28;;;;;;;10.50;2.53;;;27.10;98.90;;;;;;5092788;28;20583;-80
2022/10/18 10:59:16;;;;;;;10.32;2.40;;;27.60;96.40;;;;;;5093840;28;20040;-81
2022/10/18 11:01:42;;;;;;;12.20;2.40;;;27.40;94.40;;;;;;5074812;28;20056;-81
2022/10/18 11:04:26;;;;;;;6.40;2.03;;;26.70;95.50;;;;;;5093849;28;20044;-81
2022/10/18 11:07:17;;;;;;;10.40;2.17;;;27.20;95.50;;;;;;5074938;28;20441;-81
2022/10/18 11:10:01;;;;;;;9.60;2.22;;;27.80;94.90;;;;;;5058140;28;20124;-81
2022/10/18 11:12:53;;;;;;;8.10;2.10;;;28.60;93.70;;;;;;5074132;28;20083;-80
2022/10/18 11:15:39;;;;;;;8.38;2.00;;;29.20;91.80;;;;;;5092734;28;20066;-81
2022/10/18 11:18:26;;;;;;;7.72;2.13;;;29.20;92.00;;;;;;5074470;28;20039;-82
2022/10/18 11:21:15;;;;;;;10.32;2.28;;;29.40;92.40;;;;;;5075870;28;20044;-82
2022/10/18 11:23:42;;;;;;;9.13;2.40;;;29.80;91.70;;;;;;5075774;28;20060;-82
2022/10/18 11:26:11;;;;;;;7.28;2.10;;;30.00;91.30;;;;;;5074676;28;20114;-81
2022/10/18 11:28:52;;;;;;;7.57;2.05;;;30.70;88.40;;;;;;5092627;28;20051;-81
2022/10/18 11:31:31;;;;;;;8.05;2.28;;;30.80;87.10;;;;;;5092683;28;20048;-82
2022/10/18 11:34:15;;;;;;;8.52;2.40;;;30.70;87.40;;;;;;5074746;28;20051;-81
2022/10/18 11:36:50;;;;;;;11.15;2.35;;;30.40;85.30;;;;;;5093012;28;20054;-81
2022/10/18 11:39:23;;;;;;;9.48;2.30;;;29.00;87.20;;;;;;5075794;28;20090;-81
2022/10/18 11:41:58;;;;;;;9.60;2.47;;;;;;;;;;5074683;28;20040;-80
2022/10/18 11:44:33;;;;;;;;;;;27.60;90.00;;;;;;5074640;28;20047;-80
2022/10/18 11:47:13;;;;;;;7.95;2.10;;;27.20;92.30;;;;;;5074332;28;19947;-81
2022/10/18 11:49:48;;;;;;;9.75;2.30;;;28.30;89.80;;;;;;5068657;28;20052;-81
2022/10/18 11:52:22;;;;;;;12.10;2.47;;;30.30;85.70;;;;;;5074192;28;20067;-82
2022/10/18 11:55:43;;;;;;;10.57;2.55;;;31.30;84.90;;;;;;5074294;28;20040;-81
2022/10/18 11:58:23;;;;;;;7.50;2.00;;;32.30;81.20;;;;;;5024083;28;20052;-81
2022/10/18 12:01:31;;;;;;;11.95;2.70;;;31.80;81.30;;;;;;5074848;28;20775;-81
2022/10/18 12:04:01;;;;;;;10.50;2.42;;;;;;;;;;5065623;28;20105;-80
2022/10/18 12:06:32;;;;;;;8.27;2.20;;;;;;;;;;5074022;28;20044;-80
2022/10/18 12:09:10;;;;;;;10.18;2.30;;;;;;;;;;5074257;28;20051;-80
2022/10/18 12:11:40;;;;;;;9.40;2.28;;;;;;;;;;5074008;28;20055;-80
2022/10/18 12:14:27;;;;;;;11.43;2.30;;;;;;;;;;5074021;28;20065;-80
2022/10/18 12:16:55;;;;;;;8.18;2.33;;;;;;;;;;5074835;28;20056;-79
2022/10/18 12:19:23;;;;;;;9.10;2.20;;;;;;;;;;5074471;28;20036;-80
2022/10/18 12:21:50;;;;;;;10.55;2.40;;;;;;;;;;5092804;28;20040;-79
2022/10/18 12:24:22;;;;;;;9.15;2.00;;;;;;;;;;5077488;28;20044;-80
2022/10/18 12:26:50;;;;;;;9.50;2.10;;;;;;;;;;5077485;28;20044;-81
2022/10/18 12:29:27;;;;;;;10.88;2.30;;;;;;;;;;5095233;28;20047;-79
2022/10/18 12:31:56;;;;;;;8.85;2.13;;;;;;;;;;5077632;28;20040;-80
2022/10/18 12:34:22;;;;;;;7.63;2.20;;;;;;;;;;5078123;28;20151;-79
2022/10/18 12:36:52;;;;;;;8.70;2.30;;;;;;;;;;5076434;28;20427;-79
2022/10/18 12:39:41;;;;;;;12.43;2.50;;;;;;;;;;5094878;28;20126;-79
2022/10/18 12:42:18;;;;;;;8.85;1.92;;;;;;;;;;5049208;28;20052;-79
2022/10/18 12:44:46;;;;;;;8.60;2.10;;;;;;;;;;5095884;28;20044;-79
2022/10/18 12:47:21;;;;;;;13.27;2.30;;;;;;;;;;5077700;28;20047;-79
2022/10/18 12:49:55;;;;;;;8.95;2.42;;;;;;;;;;5095810;28;20075;-79
2022/10/18 12:52:25;;;;;;;9.02;2.13;;;;;;;;;;5077090;28;20048;-79
2022/10/18 12:55:04;;;;;;;11.88;2.30;;;;;;;;;;5091246;28;20489;-79
2022/10/18 12:57:48;;;;;;;8.75;2.10;;;;;;;;;;5095377;28;20044;-79
2022/10/18 13:00:29;;;;;;;12.57;2.20;;;;;;;;;;5076369;28;20058;-80
2022/10/18 13:03:16;;;;;;;10.38;2.42;;;;;;;;;;5059808;28;20382;-80
2022/10/18 13:05:49;;;;;;;10.15;2.20;;;;;;;;;;5096236;28;20047;-80
2022/10/18 13:08:28;;;;;;;9.10;2.08;;;;;;;;;;5080901;28;20420;-79
2022/10/18 13:11:01;;;;;;;6.65;2.10;;;;;;;;;;5094350;28;20040;-80
2022/10/18 13:13:33;;;;;;;10.60;2.45;;;;;;;;;;5095686;28;20169;-79
2022/10/18 13:16:03;;;;;;;10.82;2.20;;;;;;;;;;5077046;28;20063;-79
2022/10/18 13:18:50;;;;;;;12.25;2.45;;;;;;;;;;5077278;28;20508;-80
2022/10/18 13:21:20;;;;;;;8.38;2.00;;;;;;;;;;5076559;28;20127;-79